sensor_id;sensor_type;location;lat;lon;timestamp;pressure;altitude;pressure_sealevel;temperature
66170;BMP280;52971;44.024;20.456;2022-08-05T00:02:23;98122.09;;;19.58
66170;BMP280;52971;44.024;20.456;2022-08-05T00:04:48;98117.03;;;19.53
66170;BMP280;52971;44.024;20.456;2022-08-05T00:07:14;98116.94;;;19.50
66170;BMP280;52971;44.024;20.456;2022-08-05T00:09:39;98113.25;;;19.58
66170;BMP280;52971;44.024;20.456;2022-08-05T00:12:05;98113.16;;;19.54
66170;BMP280;52971;44.024;20.456;2022-08-05T00:14:31;98107.84;;;19.35
66170;BMP280;52971;44.024;20.456;2022-08-05T00:16:57;98112.03;;;19.33
66170;BMP280;52971;44.024;20.456;2022-08-05T00:19:23;98112.47;;;19.35
66170;BMP280;52971;44.024;20.456;2022-08-05T00:21:49;98116.53;;;19.28
66170;BMP280;52971;44.024;20.456;2022-08-05T00:24:15;98117.91;;;19.19
66170;BMP280;52971;44.024;20.456;2022-08-05T00:26:41;98124.16;;;19.23
66170;BMP280;52971;44.024;20.456;2022-08-05T00:29:06;98109.03;;;19.38
66170;BMP280;52971;44.024;20.456;2022-08-05T00:31:32;98119.47;;;19.20
66170;BMP280;52971;44.024;20.456;2022-08-05T00:33:57;98115.97;;;19.16
66170;BMP280;52971;44.024;20.456;2022-08-05T00:36:23;98113.78;;;19.02
66170;BMP280;52971;44.024;20.456;2022-08-05T00:38:49;98112.22;;;19.01
66170;BMP280;52971;44.024;20.456;2022-08-05T00:41:26;98112.78;;;18.91
66170;BMP280;52971;44.024;20.456;2022-08-05T00:43:51;98106.34;;;18.96
66170;BMP280;52971;44.024;20.456;2022-08-05T00:46:17;98107.66;;;19.05
66170;BMP280;52971;44.024;20.456;2022-08-05T00:48:42;98108.94;;;18.92
66170;BMP280;52971;44.024;20.456;2022-08-05T00:51:08;98106.47;;;18.83
66170;BMP280;52971;44.024;20.456;2022-08-05T00:53:33;98099.97;;;18.84
66170;BMP280;52971;44.024;20.456;2022-08-05T00:55:59;98104.91;;;18.82
66170;BMP280;52971;44.024;20.456;2022-08-05T00:58:24;98104.06;;;18.78
66170;BMP280;52971;44.024;20.456;2022-08-05T01:00:50;98094.47;;;18.77
66170;BMP280;52971;44.024;20.456;2022-08-05T01:03:15;98102.59;;;18.81
66170;BMP280;52971;44.024;20.456;2022-08-05T01:05:40;98097.63;;;18.83
66170;BMP280;52971;44.024;20.456;2022-08-05T01:08:06;98094.38;;;18.74
66170;BMP280;52971;44.024;20.456;2022-08-05T01:11:20;98102.16;;;18.79
66170;BMP280;52971;44.024;20.456;2022-08-05T01:16:39;98098.03;;;18.66
66170;BMP280;52971;44.024;20.456;2022-08-05T01:19:39;98092.56;;;18.59
66170;BMP280;52971;44.024;20.456;2022-08-05T01:28:23;98096.63;;;18.53
66170;BMP280;52971;44.024;20.456;2022-08-05T01:31:00;98094.09;;;18.60
66170;BMP280;52971;44.024;20.456;2022-08-05T01:33:53;98099.25;;;18.49
66170;BMP280;52971;44.024;20.456;2022-08-05T01:36:24;98093.69;;;18.58
66170;BMP280;52971;44.024;20.456;2022-08-05T01:38:51;98092.06;;;18.37
66170;BMP280;52971;44.024;20.456;2022-08-05T01:41:19;98100.78;;;18.31
66170;BMP280;52971;44.024;20.456;2022-08-05T01:43:47;98101.47;;;18.28
66170;BMP280;52971;44.024;20.456;2022-08-05T01:46:13;98107.59;;;18.28
66170;BMP280;52971;44.024;20.456;2022-08-05T01:48:40;98095.16;;;18.20
66170;BMP280;52971;44.024;20.456;2022-08-05T01:51:06;98107.78;;;18.20
66170;BMP280;52971;44.024;20.456;2022-08-05T01:53:34;98102.34;;;18.16
66170;BMP280;52971;44.024;20.456;2022-08-05T01:56:01;98110.13;;;18.21
66170;BMP280;52971;44.024;20.456;2022-08-05T01:58:29;98113.09;;;18.16
66170;BMP280;52971;44.024;20.456;2022-08-05T02:00:57;98104.06;;;18.08
66170;BMP280;52971;44.024;20.456;2022-08-05T02:03:27;98105.50;;;18.22
66170;BMP280;52971;44.024;20.456;2022-08-05T02:05:53;98102.16;;;18.09
66170;BMP280;52971;44.024;20.456;2022-08-05T02:08:20;98100.88;;;18.03
66170;BMP280;52971;44.024;20.456;2022-08-05T02:10:55;98102.28;;;17.97
66170;BMP280;52971;44.024;20.456;2022-08-05T02:14:16;98102.16;;;18.09
66170;BMP280;52971;44.024;20.456;2022-08-05T02:16:24;98097.91;;;18.08
66170;BMP280;52971;44.024;20.456;2022-08-05T02:19:02;98097.00;;;18.00
66170;BMP280;52971;44.024;20.456;2022-08-05T02:21:34;98092.22;;;17.94
66170;BMP280;52971;44.024;20.456;2022-08-05T02:24:05;98087.22;;;17.77
66170;BMP280;52971;44.024;20.456;2022-08-05T02:26:37;98092.25;;;17.78
66170;BMP280;52971;44.024;20.456;2022-08-05T02:29:05;98090.88;;;17.69
66170;BMP280;52971;44.024;20.456;2022-08-05T02:31:32;98090.50;;;17.70
66170;BMP280;52971;44.024;20.456;2022-08-05T02:34:02;98093.78;;;17.63
66170;BMP280;52971;44.024;20.456;2022-08-05T02:36:30;98080.56;;;17.71
66170;BMP280;52971;44.024;20.456;2022-08-05T02:38:57;98085.50;;;17.69
66170;BMP280;52971;44.024;20.456;2022-08-05T02:41:25;98093.56;;;17.69
66170;BMP280;52971;44.024;20.456;2022-08-05T02:43:53;98089.31;;;17.67
66170;BMP280;52971;44.024;20.456;2022-08-05T02:46:20;98082.44;;;17.70
66170;BMP280;52971;44.024;20.456;2022-08-05T02:48:47;98094.47;;;17.60
66170;BMP280;52971;44.024;20.456;2022-08-05T02:51:14;98088.44;;;17.63
66170;BMP280;52971;44.024;20.456;2022-08-05T02:53:41;98094.38;;;17.57
66170;BMP280;52971;44.024;20.456;2022-08-05T02:56:08;98089.81;;;17.57
66170;BMP280;52971;44.024;20.456;2022-08-05T02:58:38;98088.75;;;17.46
66170;BMP280;52971;44.024;20.456;2022-08-05T03:01:05;98089.00;;;17.41
66170;BMP280;52971;44.024;20.456;2022-08-05T03:03:32;98086.78;;;17.43
66170;BMP280;52971;44.024;20.456;2022-08-05T03:06:00;98087.03;;;17.38
66170;BMP280;52971;44.024;20.456;2022-08-05T03:08:26;98088.38;;;17.32
66170;BMP280;52971;44.024;20.456;2022-08-05T03:10:52;98090.78;;;17.37
66170;BMP280;52971;44.024;20.456;2022-08-05T03:13:19;98089.44;;;17.43
66170;BMP280;52971;44.024;20.456;2022-08-05T03:15:45;98081.13;;;17.48
66170;BMP280;52971;44.024;20.456;2022-08-05T03:18:12;98089.50;;;17.31
66170;BMP280;52971;44.024;20.456;2022-08-05T03:20:38;98084.75;;;17.24
66170;BMP280;52971;44.024;20.456;2022-08-05T03:23:05;98080.06;;;17.37
66170;BMP280;52971;44.024;20.456;2022-08-05T03:25:33;98073.84;;;17.05
66170;BMP280;52971;44.024;20.456;2022-08-05T03:28:01;98085.34;;;17.06
66170;BMP280;52971;44.024;20.456;2022-08-05T03:30:28;98084.81;;;17.00
66170;BMP280;52971;44.024;20.456;2022-08-05T03:32:58;98080.56;;;16.83
66170;BMP280;52971;44.024;20.456;2022-08-05T03:35:25;98084.44;;;16.74
66170;BMP280;52971;44.024;20.456;2022-08-05T03:37:53;98088.69;;;16.75
66170;BMP280;52971;44.024;20.456;2022-08-05T03:40:20;98094.69;;;16.84
66170;BMP280;52971;44.024;20.456;2022-08-05T03:42:45;98091.59;;;16.82
66170;BMP280;52971;44.024;20.456;2022-08-05T03:45:11;98091.88;;;16.93
66170;BMP280;52971;44.024;20.456;2022-08-05T03:47:37;98087.09;;;16.98
66170;BMP280;52971;44.024;20.456;2022-08-05T03:50:04;98085.91;;;17.11
66170;BMP280;52971;44.024;20.456;2022-08-05T03:52:36;98093.94;;;17.11
66170;BMP280;52971;44.024;20.456;2022-08-05T03:55:08;98090.97;;;17.01
66170;BMP280;52971;44.024;20.456;2022-08-05T03:57:37;98093.78;;;16.92
66170;BMP280;52971;44.024;20.456;2022-08-05T04:00:04;98091.81;;;17.05
66170;BMP280;52971;44.024;20.456;2022-08-05T04:02:32;98097.25;;;16.93
66170;BMP280;52971;44.024;20.456;2022-08-05T04:05:00;98094.69;;;16.96
66170;BMP280;52971;44.024;20.456;2022-08-05T04:07:26;98092.75;;;17.09
66170;BMP280;52971;44.024;20.456;2022-08-05T04:09:53;98099.31;;;17.11
66170;BMP280;52971;44.024;20.456;2022-08-05T04:12:19;98094.72;;;17.12
66170;BMP280;52971;44.024;20.456;2022-08-05T04:14:45;98090.94;;;17.13
66170;BMP280;52971;44.024;20.456;2022-08-05T04:17:11;98096.03;;;17.18
66170;BMP280;52971;44.024;20.456;2022-08-05T04:19:44;98098.72;;;17.18
66170;BMP280;52971;44.024;20.456;2022-08-05T04:22:11;98096.88;;;17.34
66170;BMP280;52971;44.024;20.456;2022-08-05T04:24:41;98107.44;;;17.43
66170;BMP280;52971;44.024;20.456;2022-08-05T04:27:07;98102.97;;;17.35
66170;BMP280;52971;44.024;20.456;2022-08-05T04:29:33;98104.13;;;17.34
66170;BMP280;52971;44.024;20.456;2022-08-05T04:31:58;98103.28;;;17.45
66170;BMP280;52971;44.024;20.456;2022-08-05T04:34:24;98102.34;;;17.38
66170;BMP280;52971;44.024;20.456;2022-08-05T04:36:49;98088.69;;;17.58
66170;BMP280;52971;44.024;20.456;2022-08-05T04:39:16;98090.88;;;17.69
66170;BMP280;52971;44.024;20.456;2022-08-05T04:41:41;98086.09;;;17.62
66170;BMP280;52971;44.024;20.456;2022-08-05T04:44:07;98085.13;;;17.70
66170;BMP280;52971;44.024;20.456;2022-08-05T04:46:32;98085.66;;;17.76
66170;BMP280;52971;44.024;20.456;2022-08-05T04:48:57;98079.22;;;17.96
66170;BMP280;52971;44.024;20.456;2022-08-05T04:51:23;98078.13;;;17.97
66170;BMP280;52971;44.024;20.456;2022-08-05T04:53:48;98083.69;;;17.88
66170;BMP280;52971;44.024;20.456;2022-08-05T04:56:14;98071.19;;;17.96
66170;BMP280;52971;44.024;20.456;2022-08-05T04:58:39;98077.16;;;18.05
66170;BMP280;52971;44.024;20.456;2022-08-05T05:01:05;98073.16;;;18.15
66170;BMP280;52971;44.024;20.456;2022-08-05T05:03:31;98069.16;;;18.24
66170;BMP280;52971;44.024;20.456;2022-08-05T05:05:56;98073.47;;;18.29
66170;BMP280;52971;44.024;20.456;2022-08-05T05:08:22;98071.88;;;18.43
66170;BMP280;52971;44.024;20.456;2022-08-05T05:10:47;98069.69;;;18.49
66170;BMP280;52971;44.024;20.456;2022-08-05T05:13:14;98071.06;;;18.59
66170;BMP280;52971;44.024;20.456;2022-08-05T05:15:41;98072.03;;;18.70
66170;BMP280;52971;44.024;20.456;2022-08-05T05:18:06;98063.13;;;18.85
66170;BMP280;52971;44.024;20.456;2022-08-05T05:20:33;98060.28;;;18.97
66170;BMP280;52971;44.024;20.456;2022-08-05T05:23:00;98064.09;;;18.96
66170;BMP280;52971;44.024;20.456;2022-08-05T05:25:27;98058.63;;;19.12
66170;BMP280;52971;44.024;20.456;2022-08-05T05:27:52;98063.34;;;19.18
66170;BMP280;52971;44.024;20.456;2022-08-05T05:30:19;98055.66;;;19.40
66170;BMP280;52971;44.024;20.456;2022-08-05T05:32:45;98060.56;;;19.34
66170;BMP280;52971;44.024;20.456;2022-08-05T05:35:10;98057.00;;;19.49
66170;BMP280;52971;44.024;20.456;2022-08-05T05:37:53;98063.06;;;19.69
66170;BMP280;52971;44.024;20.456;2022-08-05T05:40:22;98048.22;;;19.79
66170;BMP280;52971;44.024;20.456;2022-08-05T05:42:48;98056.47;;;19.89
66170;BMP280;52971;44.024;20.456;2022-08-05T05:45:14;98057.78;;;20.02
66170;BMP280;52971;44.024;20.456;2022-08-05T05:47:40;98055.34;;;20.20
66170;BMP280;52971;44.024;20.456;2022-08-05T05:50:08;98048.66;;;20.37
66170;BMP280;52971;44.024;20.456;2022-08-05T05:52:34;98040.75;;;20.51
66170;BMP280;52971;44.024;20.456;2022-08-05T05:55:00;98045.09;;;20.63
66170;BMP280;52971;44.024;20.456;2022-08-05T05:57:26;98051.06;;;20.79
66170;BMP280;52971;44.024;20.456;2022-08-05T05:59:51;98045.84;;;20.97
66170;BMP280;52971;44.024;20.456;2022-08-05T06:02:18;98049.88;;;21.13
66170;BMP280;52971;44.024;20.456;2022-08-05T06:04:44;98048.22;;;21.46
66170;BMP280;52971;44.024;20.456;2022-08-05T06:07:09;98049.06;;;21.53
66170;BMP280;52971;44.024;20.456;2022-08-05T06:09:34;98047.13;;;21.54
66170;BMP280;52971;44.024;20.456;2022-08-05T06:12:00;98051.97;;;21.82
66170;BMP280;52971;44.024;20.456;2022-08-05T06:14:26;98045.91;;;21.99
66170;BMP280;52971;44.024;20.456;2022-08-05T06:16:51;98059.13;;;22.22
66170;BMP280;52971;44.024;20.456;2022-08-05T06:19:17;98053.34;;;22.30
66170;BMP280;52971;44.024;20.456;2022-08-05T06:21:42;98055.31;;;22.37
66170;BMP280;52971;44.024;20.456;2022-08-05T06:24:08;98065.44;;;22.61
66170;BMP280;52971;44.024;20.456;2022-08-05T06:26:34;98052.75;;;22.76
66170;BMP280;52971;44.024;20.456;2022-08-05T06:28:59;98052.00;;;22.93
66170;BMP280;52971;44.024;20.456;2022-08-05T06:31:25;98058.19;;;23.11
66170;BMP280;52971;44.024;20.456;2022-08-05T06:33:50;98057.81;;;23.27
66170;BMP280;52971;44.024;20.456;2022-08-05T06:36:16;98053.94;;;23.49
66170;BMP280;52971;44.024;20.456;2022-08-05T06:38:41;98052.75;;;23.57
66170;BMP280;52971;44.024;20.456;2022-08-05T06:41:08;98049.63;;;23.80
66170;BMP280;52971;44.024;20.456;2022-08-05T06:43:35;98043.00;;;23.95
66170;BMP280;52971;44.024;20.456;2022-08-05T06:46:00;98044.50;;;24.10
66170;BMP280;52971;44.024;20.456;2022-08-05T06:48:26;98041.31;;;24.26
66170;BMP280;52971;44.024;20.456;2022-08-05T06:50:51;98045.50;;;24.45
66170;BMP280;52971;44.024;20.456;2022-08-05T06:53:16;98055.06;;;24.70
66170;BMP280;52971;44.024;20.456;2022-08-05T06:55:42;98042.06;;;24.99
66170;BMP280;52971;44.024;20.456;2022-08-05T06:58:08;98045.59;;;25.37
66170;BMP280;52971;44.024;20.456;2022-08-05T07:00:33;98046.75;;;25.40
66170;BMP280;52971;44.024;20.456;2022-08-05T07:02:59;98052.19;;;25.40
66170;BMP280;52971;44.024;20.456;2022-08-05T07:05:24;98046.22;;;25.55
66170;BMP280;52971;44.024;20.456;2022-08-05T07:07:50;98043.38;;;26.00
66170;BMP280;52971;44.024;20.456;2022-08-05T07:10:16;98042.13;;;26.04
66170;BMP280;52971;44.024;20.456;2022-08-05T07:12:41;98037.59;;;26.25
66170;BMP280;52971;44.024;20.456;2022-08-05T07:15:26;98033.84;;;26.45
66170;BMP280;52971;44.024;20.456;2022-08-05T07:18:10;98037.47;;;26.62
66170;BMP280;52971;44.024;20.456;2022-08-05T07:20:35;98038.09;;;26.73
66170;BMP280;52971;44.024;20.456;2022-08-05T07:23:01;98031.22;;;26.88
66170;BMP280;52971;44.024;20.456;2022-08-05T07:25:26;98033.22;;;27.07
66170;BMP280;52971;44.024;20.456;2022-08-05T07:27:54;98036.31;;;27.52
66170;BMP280;52971;44.024;20.456;2022-08-05T07:30:20;98030.75;;;27.79
66170;BMP280;52971;44.024;20.456;2022-08-05T07:32:45;98025.44;;;28.08
66170;BMP280;52971;44.024;20.456;2022-08-05T07:35:11;98026.59;;;28.27
66170;BMP280;52971;44.024;20.456;2022-08-05T07:37:38;98021.81;;;28.31
66170;BMP280;52971;44.024;20.456;2022-08-05T07:40:07;98025.25;;;28.35
66170;BMP280;52971;44.024;20.456;2022-08-05T07:42:33;98017.75;;;28.39
66170;BMP280;52971;44.024;20.456;2022-08-05T07:44:58;98015.25;;;28.44
66170;BMP280;52971;44.024;20.456;2022-08-05T07:47:24;98018.13;;;28.86
66170;BMP280;52971;44.024;20.456;2022-08-05T07:49:50;98017.19;;;29.09
66170;BMP280;52971;44.024;20.456;2022-08-05T07:52:19;98009.75;;;29.38
66170;BMP280;52971;44.024;20.456;2022-08-05T07:54:45;98022.84;;;29.59
66170;BMP280;52971;44.024;20.456;2022-08-05T07:57:10;98012.44;;;29.79
66170;BMP280;52971;44.024;20.456;2022-08-05T07:59:37;98018.81;;;29.76
66170;BMP280;52971;44.024;20.456;2022-08-05T08:02:03;98015.53;;;30.07
66170;BMP280;52971;44.024;20.456;2022-08-05T08:04:29;98021.56;;;30.27
66170;BMP280;52971;44.024;20.456;2022-08-05T08:06:54;98018.50;;;30.12
66170;BMP280;52971;44.024;20.456;2022-08-05T08:09:20;98019.81;;;30.20
66170;BMP280;52971;44.024;20.456;2022-08-05T08:11:49;98018.47;;;30.37
66170;BMP280;52971;44.024;20.456;2022-08-05T08:14:14;98013.31;;;30.52
66170;BMP280;52971;44.024;20.456;2022-08-05T08:16:40;98017.00;;;30.71
66170;BMP280;52971;44.024;20.456;2022-08-05T08:19:06;98019.38;;;30.81
66170;BMP280;52971;44.024;20.456;2022-08-05T08:21:32;98022.47;;;31.27
66170;BMP280;52971;44.024;20.456;2022-08-05T08:23:58;98012.34;;;31.58
66170;BMP280;52971;44.024;20.456;2022-08-05T08:26:24;98019.34;;;31.37
66170;BMP280;52971;44.024;20.456;2022-08-05T08:28:49;98024.13;;;31.46
66170;BMP280;52971;44.024;20.456;2022-08-05T08:31:14;98023.13;;;31.52
66170;BMP280;52971;44.024;20.456;2022-08-05T08:33:40;98017.56;;;31.22
66170;BMP280;52971;44.024;20.456;2022-08-05T08:36:06;98017.00;;;31.05
66170;BMP280;52971;44.024;20.456;2022-08-05T08:38:32;98022.56;;;31.14
66170;BMP280;52971;44.024;20.456;2022-08-05T08:40:59;98024.25;;;31.42
66170;BMP280;52971;44.024;20.456;2022-08-05T08:43:26;98018.53;;;31.49
66170;BMP280;52971;44.024;20.456;2022-08-05T08:45:53;98014.63;;;31.38
66170;BMP280;52971;44.024;20.456;2022-08-05T08:48:19;98011.25;;;31.34
66170;BMP280;52971;44.024;20.456;2022-08-05T08:50:47;98015.97;;;31.55
66170;BMP280;52971;44.024;20.456;2022-08-05T08:53:15;98009.84;;;31.51
66170;BMP280;52971;44.024;20.456;2022-08-05T08:55:40;98010.78;;;31.57
66170;BMP280;52971;44.024;20.456;2022-08-05T08:58:07;98019.81;;;31.67
66170;BMP280;52971;44.024;20.456;2022-08-05T09:00:33;98012.84;;;31.75
66170;BMP280;52971;44.024;20.456;2022-08-05T09:03:00;98012.84;;;31.75
66170;BMP280;52971;44.024;20.456;2022-08-05T09:05:26;98012.28;;;31.80
66170;BMP280;52971;44.024;20.456;2022-08-05T09:07:52;98017.31;;;31.81
66170;BMP280;52971;44.024;20.456;2022-08-05T09:10:19;97999.47;;;32.17
66170;BMP280;52971;44.024;20.456;2022-08-05T09:12:44;97998.56;;;32.20
66170;BMP280;52971;44.024;20.456;2022-08-05T09:15:12;98002.88;;;32.66
66170;BMP280;52971;44.024;20.456;2022-08-05T09:17:38;98002.59;;;32.91
66170;BMP280;52971;44.024;20.456;2022-08-05T09:20:05;98001.50;;;32.98
66170;BMP280;52971;44.024;20.456;2022-08-05T09:25:42;97999.59;;;33.40
66170;BMP280;52971;44.024;20.456;2022-08-05T09:28:16;97994.38;;;33.84
66170;BMP280;52971;44.024;20.456;2022-08-05T09:30:52;98001.97;;;33.98
66170;BMP280;52971;44.024;20.456;2022-08-05T09:33:19;97990.72;;;33.78
66170;BMP280;52971;44.024;20.456;2022-08-05T09:36:05;97991.63;;;34.08
66170;BMP280;52971;44.024;20.456;2022-08-05T09:38:31;97986.19;;;34.22
66170;BMP280;52971;44.024;20.456;2022-08-05T09:41:07;97980.25;;;33.67
66170;BMP280;52971;44.024;20.456;2022-08-05T09:43:36;97981.94;;;33.65
66170;BMP280;52971;44.024;20.456;2022-08-05T09:46:04;97983.53;;;33.48
66170;BMP280;52971;44.024;20.456;2022-08-05T09:48:34;97979.75;;;33.69
66170;BMP280;52971;44.024;20.456;2022-08-05T09:51:04;97974.00;;;34.14
66170;BMP280;52971;44.024;20.456;2022-08-05T09:53:46;97974.56;;;34.42
66170;BMP280;52971;44.024;20.456;2022-08-05T09:56:12;97966.00;;;34.93
66170;BMP280;52971;44.024;20.456;2022-08-05T09:58:37;97969.88;;;35.30
66170;BMP280;52971;44.024;20.456;2022-08-05T10:01:05;97969.56;;;35.58
66170;BMP280;52971;44.024;20.456;2022-08-05T10:03:31;97972.56;;;35.25
66170;BMP280;52971;44.024;20.456;2022-08-05T10:06:03;97967.03;;;35.95
66170;BMP280;52971;44.024;20.456;2022-08-05T10:08:29;97969.16;;;36.25
66170;BMP280;52971;44.024;20.456;2022-08-05T10:10:55;97972.16;;;36.68
66170;BMP280;52971;44.024;20.456;2022-08-05T10:13:32;97968.44;;;37.33
66170;BMP280;52971;44.024;20.456;2022-08-05T10:16:01;97960.25;;;38.20
66170;BMP280;52971;44.024;20.456;2022-08-05T10:18:27;97949.75;;;38.79
66170;BMP280;52971;44.024;20.456;2022-08-05T10:21:02;97952.88;;;40.13
66170;BMP280;52971;44.024;20.456;2022-08-05T10:23:30;97954.94;;;39.55
66170;BMP280;52971;44.024;20.456;2022-08-05T10:25:57;97953.78;;;39.80
66170;BMP280;52971;44.024;20.456;2022-08-05T10:28:23;97953.31;;;39.76
66170;BMP280;52971;44.024;20.456;2022-08-05T10:30:51;97954.50;;;38.23
66170;BMP280;52971;44.024;20.456;2022-08-05T10:33:18;97953.75;;;37.64
66170;BMP280;52971;44.024;20.456;2022-08-05T10:35:44;97951.97;;;37.19
66170;BMP280;52971;44.024;20.456;2022-08-05T10:38:11;97941.03;;;38.00
66170;BMP280;52971;44.024;20.456;2022-08-05T10:40:51;97939.13;;;39.17
66170;BMP280;52971;44.024;20.456;2022-08-05T10:43:42;97941.06;;;39.44
66170;BMP280;52971;44.024;20.456;2022-08-05T10:46:15;97934.88;;;39.10
66170;BMP280;52971;44.024;20.456;2022-08-05T10:48:55;97933.28;;;38.20
66170;BMP280;52971;44.024;20.456;2022-08-05T10:51:22;97948.91;;;38.18
66170;BMP280;52971;44.024;20.456;2022-08-05T10:56:50;97907.13;;;38.82
66170;BMP280;52971;44.024;20.456;2022-08-05T10:59:28;97929.28;;;38.21
66170;BMP280;52971;44.024;20.456;2022-08-05T11:02:11;97932.25;;;38.07
66170;BMP280;52971;44.024;20.456;2022-08-05T11:07:10;97924.66;;;37.37
66170;BMP280;52971;44.024;20.456;2022-08-05T11:09:44;97920.03;;;37.71
66170;BMP280;52971;44.024;20.456;2022-08-05T11:18:37;97907.81;;;37.94
66170;BMP280;52971;44.024;20.456;2022-08-05T14:02:15;97773.75;;;36.00
66170;BMP280;52971;44.024;20.456;2022-08-05T14:04:43;97767.81;;;35.81
66170;BMP280;52971;44.024;20.456;2022-08-05T14:07:30;97766.22;;;35.95
66170;BMP280;52971;44.024;20.456;2022-08-05T14:09:56;97770.47;;;35.96
66170;BMP280;52971;44.024;20.456;2022-08-05T14:12:22;97769.28;;;35.77
66170;BMP280;52971;44.024;20.456;2022-08-05T14:14:48;97771.41;;;35.87
66170;BMP280;52971;44.024;20.456;2022-08-05T14:17:13;97771.94;;;35.66
66170;BMP280;52971;44.024;20.456;2022-08-05T14:19:40;97773.00;;;35.74
66170;BMP280;52971;44.024;20.456;2022-08-05T14:22:06;97778.81;;;35.56
66170;BMP280;52971;44.024;20.456;2022-08-05T14:24:31;97773.53;;;35.32
66170;BMP280;52971;44.024;20.456;2022-08-05T14:26:57;97769.44;;;35.07
66170;BMP280;52971;44.024;20.456;2022-08-05T14:29:22;97774.19;;;35.67
66170;BMP280;52971;44.024;20.456;2022-08-05T14:31:48;97762.81;;;35.60
66170;BMP280;52971;44.024;20.456;2022-08-05T14:34:15;97762.00;;;35.54
66170;BMP280;52971;44.024;20.456;2022-08-05T14:36:41;97763.66;;;35.66
66170;BMP280;52971;44.024;20.456;2022-08-05T14:39:07;97760.81;;;35.40
66170;BMP280;52971;44.024;20.456;2022-08-05T14:41:33;97764.38;;;35.20
66170;BMP280;52971;44.024;20.456;2022-08-05T14:43:59;97762.63;;;35.03
66170;BMP280;52971;44.024;20.456;2022-08-05T14:46:27;97763.44;;;35.09
66170;BMP280;52971;44.024;20.456;2022-08-05T14:48:53;97768.72;;;35.27
66170;BMP280;52971;44.024;20.456;2022-08-05T14:51:20;97765.88;;;35.21
66170;BMP280;52971;44.024;20.456;2022-08-05T14:53:46;97767.25;;;35.31
66170;BMP280;52971;44.024;20.456;2022-08-05T14:56:14;97761.00;;;34.96
66170;BMP280;52971;44.024;20.456;2022-08-05T14:58:39;97757.25;;;34.79
66170;BMP280;52971;44.024;20.456;2022-08-05T15:01:05;97770.53;;;34.95
66170;BMP280;52971;44.024;20.456;2022-08-05T15:03:31;97761.94;;;35.08
66170;BMP280;52971;44.024;20.456;2022-08-05T15:05:56;97767.50;;;34.44
66170;BMP280;52971;44.024;20.456;2022-08-05T15:08:22;97761.06;;;34.67
66170;BMP280;52971;44.024;20.456;2022-08-05T15:10:50;97764.22;;;34.60
66170;BMP280;52971;44.024;20.456;2022-08-05T15:13:17;97766.03;;;34.63
66170;BMP280;52971;44.024;20.456;2022-08-05T15:15:42;97757.56;;;34.66
66170;BMP280;52971;44.024;20.456;2022-08-05T15:18:08;97763.19;;;34.57
66170;BMP280;52971;44.024;20.456;2022-08-05T15:20:34;97756.00;;;34.45
66170;BMP280;52971;44.024;20.456;2022-08-05T15:23:08;97762.53;;;34.33
66170;BMP280;52971;44.024;20.456;2022-08-05T15:25:34;97749.53;;;34.34
66170;BMP280;52971;44.024;20.456;2022-08-05T15:28:02;97750.94;;;34.00
66170;BMP280;52971;44.024;20.456;2022-08-05T15:30:28;97747.53;;;34.05
66170;BMP280;52971;44.024;20.456;2022-08-05T15:32:57;97746.50;;;34.02
66170;BMP280;52971;44.024;20.456;2022-08-05T15:35:22;97741.28;;;34.19
66170;BMP280;52971;44.024;20.456;2022-08-05T15:37:48;97742.69;;;34.14
66170;BMP280;52971;44.024;20.456;2022-08-05T15:40:14;97740.97;;;34.17
66170;BMP280;52971;44.024;20.456;2022-08-05T15:42:39;97743.94;;;34.13
66170;BMP280;52971;44.024;20.456;2022-08-05T15:45:05;97737.88;;;34.24
66170;BMP280;52971;44.024;20.456;2022-08-05T15:47:31;97741.25;;;34.04
66170;BMP280;52971;44.024;20.456;2022-08-05T15:49:56;97742.28;;;34.07
66170;BMP280;52971;44.024;20.456;2022-08-05T15:52:22;97740.91;;;34.11
66170;BMP280;52971;44.024;20.456;2022-08-05T15:54:48;97741.38;;;33.95
66170;BMP280;52971;44.024;20.456;2022-08-05T15:57:14;97728.81;;;33.65
66170;BMP280;52971;44.024;20.456;2022-08-05T15:59:39;97741.66;;;33.59
66170;BMP280;52971;44.024;20.456;2022-08-05T16:02:06;97731.44;;;33.74
66170;BMP280;52971;44.024;20.456;2022-08-05T16:04:31;97737.91;;;33.71
66170;BMP280;52971;44.024;20.456;2022-08-05T16:06:57;97734.69;;;33.49
66170;BMP280;52971;44.024;20.456;2022-08-05T16:09:23;97732.84;;;33.31
66170;BMP280;52971;44.024;20.456;2022-08-05T16:11:49;97729.56;;;33.42
66170;BMP280;52971;44.024;20.456;2022-08-05T16:14:14;97731.16;;;33.34
66170;BMP280;52971;44.024;20.456;2022-08-05T16:16:39;97726.25;;;33.38
66170;BMP280;52971;44.024;20.456;2022-08-05T16:19:05;97733.78;;;33.28
66170;BMP280;52971;44.024;20.456;2022-08-05T16:21:30;97732.19;;;33.12
66170;BMP280;52971;44.024;20.456;2022-08-05T16:23:56;97732.94;;;33.22
66170;BMP280;52971;44.024;20.456;2022-08-05T16:26:21;97734.91;;;33.22
66170;BMP280;52971;44.024;20.456;2022-08-05T16:28:47;97725.22;;;33.02
66170;BMP280;52971;44.024;20.456;2022-08-05T16:31:14;97732.84;;;33.07
66170;BMP280;52971;44.024;20.456;2022-08-05T16:33:39;97732.31;;;32.94
66170;BMP280;52971;44.024;20.456;2022-08-05T16:36:05;97734.13;;;32.97
66170;BMP280;52971;44.024;20.456;2022-08-05T16:38:31;97734.31;;;32.94
66170;BMP280;52971;44.024;20.456;2022-08-05T16:40:58;97736.69;;;32.77
66170;BMP280;52971;44.024;20.456;2022-08-05T16:43:26;97731.38;;;32.65
66170;BMP280;52971;44.024;20.456;2022-08-05T16:45:53;97732.78;;;32.51
66170;BMP280;52971;44.024;20.456;2022-08-05T16:48:22;97733.97;;;32.59
66170;BMP280;52971;44.024;20.456;2022-08-05T16:50:48;97731.88;;;32.54
66170;BMP280;52971;44.024;20.456;2022-08-05T16:53:14;97727.16;;;32.45
66170;BMP280;52971;44.024;20.456;2022-08-05T16:55:39;97728.38;;;32.44
66170;BMP280;52971;44.024;20.456;2022-08-05T16:58:05;97732.50;;;32.40
66170;BMP280;52971;44.024;20.456;2022-08-05T17:00:31;97741.50;;;32.31
66170;BMP280;52971;44.024;20.456;2022-08-05T17:02:56;97740.63;;;32.16
66170;BMP280;52971;44.024;20.456;2022-08-05T17:05:22;97742.19;;;32.17